sensor_id;sensor_type;location;lat;lon;timestamp;P1;durP1;ratioP1;P2;durP2;ratioP2
48685;SDS011;34485;51.536;3.816;2024-01-11T00:00:34;14.57;;;9.00;;
48685;SDS011;34485;51.536;3.816;2024-01-11T00:03:00;12.98;;;7.38;;
48685;SDS011;34485;51.536;3.816;2024-01-11T00:05:26;16.20;;;7.63;;
48685;SDS011;34485;51.536;3.816;2024-01-11T00:07:52;12.18;;;7.35;;
48685;SDS011;34485;51.536;3.816;2024-01-11T00:10:18;7.05;;;6.47;;
48685;SDS011;34485;51.536;3.816;2024-01-11T00:12:45;10.32;;;6.85;;
48685;SDS011;34485;51.536;3.816;2024-01-11T00:15:11;11.70;;;8.73;;
48685;SDS011;34485;51.536;3.816;2024-01-11T00:17:37;12.90;;;7.67;;
48685;SDS011;34485;51.536;3.816;2024-01-11T00:20:03;15.27;;;9.43;;
48685;SDS011;34485;51.536;3.816;2024-01-11T00:22:30;14.82;;;8.00;;
48685;SDS011;34485;51.536;3.816;2024-01-11T00:24:57;11.75;;;7.30;;
48685;SDS011;34485;51.536;3.816;2024-01-11T00:27:23;12.85;;;7.80;;
48685;SDS011;34485;51.536;3.816;2024-01-11T00:29:49;12.20;;;8.57;;
48685;SDS011;34485;51.536;3.816;2024-01-11T00:32:15;12.30;;;8.07;;
48685;SDS011;34485;51.536;3.816;2024-01-11T00:34:41;14.70;;;7.97;;
48685;SDS011;34485;51.536;3.816;2024-01-11T00:37:07;13.65;;;8.40;;
48685;SDS011;34485;51.536;3.816;2024-01-11T00:39:33;13.73;;;9.60;;
48685;SDS011;34485;51.536;3.816;2024-01-11T00:41:59;12.77;;;9.30;;
48685;SDS011;34485;51.536;3.816;2024-01-11T00:44:25;10.85;;;8.50;;
48685;SDS011;34485;51.536;3.816;2024-01-11T00:46:51;12.90;;;8.95;;
48685;SDS011;34485;51.536;3.816;2024-01-11T00:49:17;15.60;;;9.15;;
48685;SDS011;34485;51.536;3.816;2024-01-11T00:51:43;7.65;;;6.88;;
48685;SDS011;34485;51.536;3.816;2024-01-11T00:54:09;8.63;;;7.00;;
48685;SDS011;34485;51.536;3.816;2024-01-11T00:56:35;10.20;;;7.25;;
48685;SDS011;34485;51.536;3.816;2024-01-11T00:59:01;15.07;;;9.52;;
48685;SDS011;34485;51.536;3.816;2024-01-11T01:01:29;19.08;;;9.40;;
48685;SDS011;34485;51.536;3.816;2024-01-11T01:03:55;14.20;;;9.50;;
48685;SDS011;34485;51.536;3.816;2024-01-11T01:06:21;13.20;;;9.63;;
48685;SDS011;34485;51.536;3.816;2024-01-11T01:08:47;18.67;;;10.65;;
48685;SDS011;34485;51.536;3.816;2024-01-11T01:11:13;17.48;;;10.10;;
48685;SDS011;34485;51.536;3.816;2024-01-11T01:13:39;14.98;;;9.05;;
48685;SDS011;34485;51.536;3.816;2024-01-11T01:16:05;13.93;;;8.13;;
48685;SDS011;34485;51.536;3.816;2024-01-11T01:18:31;12.82;;;8.68;;
48685;SDS011;34485;51.536;3.816;2024-01-11T01:20:57;14.98;;;9.02;;
48685;SDS011;34485;51.536;3.816;2024-01-11T01:23:24;16.13;;;9.13;;
48685;SDS011;34485;51.536;3.816;2024-01-11T01:25:50;17.20;;;9.85;;
48685;SDS011;34485;51.536;3.816;2024-01-11T01:28:16;16.67;;;9.32;;
48685;SDS011;34485;51.536;3.816;2024-01-11T01:30:42;19.30;;;10.57;;
48685;SDS011;34485;51.536;3.816;2024-01-11T01:33:08;20.08;;;9.90;;
48685;SDS011;34485;51.536;3.816;2024-01-11T01:35:34;20.25;;;10.77;;
48685;SDS011;34485;51.536;3.816;2024-01-11T01:38:00;14.50;;;8.73;;
48685;SDS011;34485;51.536;3.816;2024-01-11T01:40:27;13.77;;;10.63;;
48685;SDS011;34485;51.536;3.816;2024-01-11T01:42:57;23.47;;;11.57;;
48685;SDS011;34485;51.536;3.816;2024-01-11T01:45:24;18.20;;;11.15;;
48685;SDS011;34485;51.536;3.816;2024-01-11T01:47:52;20.92;;;10.88;;
48685;SDS011;34485;51.536;3.816;2024-01-11T01:50:18;15.40;;;9.43;;
48685;SDS011;34485;51.536;3.816;2024-01-11T01:52:45;17.45;;;10.75;;
48685;SDS011;34485;51.536;3.816;2024-01-11T01:55:12;18.37;;;10.67;;
48685;SDS011;34485;51.536;3.816;2024-01-11T01:57:39;16.42;;;9.77;;
48685;SDS011;34485;51.536;3.816;2024-01-11T02:00:06;16.27;;;9.43;;
48685;SDS011;34485;51.536;3.816;2024-01-11T02:02:34;13.35;;;8.43;;
48685;SDS011;34485;51.536;3.816;2024-01-11T02:05:01;11.77;;;8.68;;
48685;SDS011;34485;51.536;3.816;2024-01-11T02:07:27;14.43;;;8.07;;
48685;SDS011;34485;51.536;3.816;2024-01-11T02:09:53;10.25;;;7.95;;
48685;SDS011;34485;51.536;3.816;2024-01-11T02:12:20;8.57;;;7.40;;
48685;SDS011;34485;51.536;3.816;2024-01-11T02:14:46;9.82;;;6.97;;
48685;SDS011;34485;51.536;3.816;2024-01-11T02:17:12;12.40;;;8.55;;
48685;SDS011;34485;51.536;3.816;2024-01-11T02:19:38;11.77;;;7.50;;
48685;SDS011;34485;51.536;3.816;2024-01-11T02:24:33;12.88;;;8.82;;
48685;SDS011;34485;51.536;3.816;2024-01-11T02:29:26;10.57;;;7.90;;
48685;SDS011;34485;51.536;3.816;2024-01-11T02:31:52;9.87;;;7.50;;
48685;SDS011;34485;51.536;3.816;2024-01-11T02:34:18;19.33;;;9.20;;
48685;SDS011;34485;51.536;3.816;2024-01-11T02:36:44;17.83;;;7.90;;
48685;SDS011;34485;51.536;3.816;2024-01-11T02:39:11;10.60;;;7.85;;
48685;SDS011;34485;51.536;3.816;2024-01-11T02:41:43;13.95;;;9.60;;
48685;SDS011;34485;51.536;3.816;2024-01-11T02:44:10;9.03;;;7.37;;
48685;SDS011;34485;51.536;3.816;2024-01-11T02:46:36;16.13;;;9.38;;
48685;SDS011;34485;51.536;3.816;2024-01-11T02:49:02;10.75;;;7.30;;
48685;SDS011;34485;51.536;3.816;2024-01-11T02:51:28;12.10;;;7.32;;
48685;SDS011;34485;51.536;3.816;2024-01-11T02:53:54;13.40;;;8.07;;
48685;SDS011;34485;51.536;3.816;2024-01-11T02:56:20;12.57;;;8.90;;
48685;SDS011;34485;51.536;3.816;2024-01-11T02:58:46;8.82;;;5.63;;
48685;SDS011;34485;51.536;3.816;2024-01-11T03:01:12;8.05;;;5.82;;
48685;SDS011;34485;51.536;3.816;2024-01-11T03:03:38;7.95;;;5.68;;
48685;SDS011;34485;51.536;3.816;2024-01-11T03:06:04;13.65;;;8.13;;
48685;SDS011;34485;51.536;3.816;2024-01-11T03:08:31;11.07;;;7.23;;
48685;SDS011;34485;51.536;3.816;2024-01-11T03:10:57;9.30;;;8.15;;
48685;SDS011;34485;51.536;3.816;2024-01-11T03:13:23;9.13;;;7.05;;
48685;SDS011;34485;51.536;3.816;2024-01-11T03:15:49;9.40;;;6.75;;
48685;SDS011;34485;51.536;3.816;2024-01-11T03:18:15;12.30;;;8.77;;
48685;SDS011;34485;51.536;3.816;2024-01-11T03:20:41;14.37;;;7.77;;
48685;SDS011;34485;51.536;3.816;2024-01-11T03:23:07;16.60;;;9.25;;
48685;SDS011;34485;51.536;3.816;2024-01-11T03:25:33;17.42;;;7.15;;
48685;SDS011;34485;51.536;3.816;2024-01-11T03:27:59;10.18;;;7.88;;
48685;SDS011;34485;51.536;3.816;2024-01-11T03:30:25;9.68;;;6.65;;
48685;SDS011;34485;51.536;3.816;2024-01-11T03:32:51;12.47;;;7.07;;
48685;SDS011;34485;51.536;3.816;2024-01-11T03:35:18;13.85;;;9.02;;
48685;SDS011;34485;51.536;3.816;2024-01-11T03:37:44;12.68;;;8.80;;
48685;SDS011;34485;51.536;3.816;2024-01-11T03:40:11;13.07;;;9.32;;
48685;SDS011;34485;51.536;3.816;2024-01-11T03:42:37;10.38;;;7.55;;
48685;SDS011;34485;51.536;3.816;2024-01-11T03:45:03;13.83;;;9.20;;
48685;SDS011;34485;51.536;3.816;2024-01-11T03:47:29;23.85;;;12.88;;
48685;SDS011;34485;51.536;3.816;2024-01-11T03:49:55;10.15;;;7.97;;
48685;SDS011;34485;51.536;3.816;2024-01-11T03:52:21;13.80;;;8.10;;
48685;SDS011;34485;51.536;3.816;2024-01-11T03:54:48;10.23;;;7.97;;
48685;SDS011;34485;51.536;3.816;2024-01-11T03:57:14;9.50;;;6.63;;
48685;SDS011;34485;51.536;3.816;2024-01-11T03:59:41;10.25;;;6.93;;
48685;SDS011;34485;51.536;3.816;2024-01-11T04:02:07;14.35;;;9.48;;
48685;SDS011;34485;51.536;3.816;2024-01-11T04:04:33;12.82;;;7.78;;
48685;SDS011;34485;51.536;3.816;2024-01-11T04:06:59;11.82;;;8.45;;
48685;SDS011;34485;51.536;3.816;2024-01-11T04:09:25;19.50;;;8.90;;
48685;SDS011;34485;51.536;3.816;2024-01-11T04:11:51;9.63;;;7.53;;
48685;SDS011;34485;51.536;3.816;2024-01-11T04:14:17;14.20;;;9.00;;
48685;SDS011;34485;51.536;3.816;2024-01-11T04:16:43;11.38;;;7.80;;
48685;SDS011;34485;51.536;3.816;2024-01-11T04:19:10;10.60;;;7.75;;
48685;SDS011;34485;51.536;3.816;2024-01-11T04:21:36;11.57;;;7.90;;
48685;SDS011;34485;51.536;3.816;2024-01-11T04:24:04;11.43;;;7.63;;
48685;SDS011;34485;51.536;3.816;2024-01-11T04:26:31;20.33;;;9.57;;
48685;SDS011;34485;51.536;3.816;2024-01-11T04:28:57;14.45;;;9.00;;
48685;SDS011;34485;51.536;3.816;2024-01-11T04:31:24;9.82;;;6.93;;
48685;SDS011;34485;51.536;3.816;2024-01-11T04:33:50;11.50;;;7.63;;
48685;SDS011;34485;51.536;3.816;2024-01-11T04:36:17;10.18;;;6.78;;
48685;SDS011;34485;51.536;3.816;2024-01-11T04:38:43;12.07;;;7.68;;
48685;SDS011;34485;51.536;3.816;2024-01-11T04:41:09;13.45;;;8.02;;
48685;SDS011;34485;51.536;3.816;2024-01-11T04:43:39;14.23;;;10.10;;
48685;SDS011;34485;51.536;3.816;2024-01-11T04:46:22;10.17;;;8.27;;
48685;SDS011;34485;51.536;3.816;2024-01-11T04:48:49;15.50;;;9.70;;
48685;SDS011;34485;51.536;3.816;2024-01-11T04:51:15;23.42;;;7.00;;
48685;SDS011;34485;51.536;3.816;2024-01-11T04:53:42;12.63;;;8.27;;
48685;SDS011;34485;51.536;3.816;2024-01-11T04:56:09;15.63;;;9.60;;
48685;SDS011;34485;51.536;3.816;2024-01-11T05:01:05;14.30;;;9.13;;
48685;SDS011;34485;51.536;3.816;2024-01-11T05:03:31;15.82;;;8.88;;
48685;SDS011;34485;51.536;3.816;2024-01-11T05:05:58;15.20;;;8.75;;
48685;SDS011;34485;51.536;3.816;2024-01-11T05:10:50;11.60;;;8.43;;
48685;SDS011;34485;51.536;3.816;2024-01-11T05:13:17;8.48;;;7.65;;
48685;SDS011;34485;51.536;3.816;2024-01-11T05:15:43;16.25;;;9.82;;
48685;SDS011;34485;51.536;3.816;2024-01-11T05:18:09;19.90;;;8.93;;
48685;SDS011;34485;51.536;3.816;2024-01-11T05:20:35;13.00;;;8.63;;
48685;SDS011;34485;51.536;3.816;2024-01-11T05:23:01;10.83;;;8.13;;
48685;SDS011;34485;51.536;3.816;2024-01-11T05:25:27;9.20;;;6.57;;
48685;SDS011;34485;51.536;3.816;2024-01-11T05:27:53;8.98;;;8.07;;
48685;SDS011;34485;51.536;3.816;2024-01-11T05:30:20;10.27;;;7.18;;
48685;SDS011;34485;51.536;3.816;2024-01-11T05:32:46;9.80;;;6.72;;
48685;SDS011;34485;51.536;3.816;2024-01-11T05:35:12;12.13;;;7.83;;
48685;SDS011;34485;51.536;3.816;2024-01-11T05:37:38;12.07;;;8.55;;
48685;SDS011;34485;51.536;3.816;2024-01-11T05:40:05;15.00;;;8.45;;
48685;SDS011;34485;51.536;3.816;2024-01-11T05:42:31;11.15;;;7.00;;
48685;SDS011;34485;51.536;3.816;2024-01-11T05:44:57;14.30;;;9.75;;
48685;SDS011;34485;51.536;3.816;2024-01-11T05:47:23;19.97;;;8.60;;
48685;SDS011;34485;51.536;3.816;2024-01-11T05:49:49;18.08;;;8.25;;
48685;SDS011;34485;51.536;3.816;2024-01-11T05:52:15;16.48;;;9.13;;
48685;SDS011;34485;51.536;3.816;2024-01-11T05:54:41;11.02;;;8.07;;
48685;SDS011;34485;51.536;3.816;2024-01-11T05:57:07;11.98;;;7.93;;
48685;SDS011;34485;51.536;3.816;2024-01-11T05:59:33;10.80;;;7.90;;
48685;SDS011;34485;51.536;3.816;2024-01-11T06:01:59;8.13;;;6.97;;
48685;SDS011;34485;51.536;3.816;2024-01-11T06:04:26;13.00;;;9.25;;
48685;SDS011;34485;51.536;3.816;2024-01-11T06:06:53;13.38;;;7.95;;
48685;SDS011;34485;51.536;3.816;2024-01-11T06:09:19;12.57;;;8.40;;
48685;SDS011;34485;51.536;3.816;2024-01-11T06:11:45;14.13;;;7.60;;
48685;SDS011;34485;51.536;3.816;2024-01-11T06:14:11;11.77;;;7.95;;
48685;SDS011;34485;51.536;3.816;2024-01-11T06:16:37;10.63;;;7.78;;
48685;SDS011;34485;51.536;3.816;2024-01-11T06:19:03;12.10;;;7.82;;
48685;SDS011;34485;51.536;3.816;2024-01-11T06:21:29;13.38;;;8.35;;
48685;SDS011;34485;51.536;3.816;2024-01-11T06:23:55;7.57;;;5.67;;
48685;SDS011;34485;51.536;3.816;2024-01-11T06:26:21;8.52;;;5.78;;
48685;SDS011;34485;51.536;3.816;2024-01-11T06:28:48;7.60;;;6.90;;
48685;SDS011;34485;51.536;3.816;2024-01-11T06:31:14;12.73;;;7.85;;
48685;SDS011;34485;51.536;3.816;2024-01-11T06:33:40;12.18;;;9.68;;
48685;SDS011;34485;51.536;3.816;2024-01-11T06:36:07;21.20;;;9.03;;
48685;SDS011;34485;51.536;3.816;2024-01-11T06:38:33;15.88;;;9.18;;
48685;SDS011;34485;51.536;3.816;2024-01-11T06:41:00;13.23;;;8.73;;
48685;SDS011;34485;51.536;3.816;2024-01-11T06:43:26;8.75;;;7.43;;
48685;SDS011;34485;51.536;3.816;2024-01-11T06:45:52;8.63;;;7.50;;
48685;SDS011;34485;51.536;3.816;2024-01-11T06:48:18;13.03;;;7.43;;
48685;SDS011;34485;51.536;3.816;2024-01-11T06:50:45;7.45;;;6.25;;
48685;SDS011;34485;51.536;3.816;2024-01-11T06:53:11;11.02;;;7.40;;
48685;SDS011;34485;51.536;3.816;2024-01-11T06:55:37;13.35;;;8.52;;
48685;SDS011;34485;51.536;3.816;2024-01-11T06:58:03;10.80;;;7.32;;
48685;SDS011;34485;51.536;3.816;2024-01-11T07:00:29;14.80;;;9.20;;
48685;SDS011;34485;51.536;3.816;2024-01-11T07:02:55;24.75;;;11.85;;
48685;SDS011;34485;51.536;3.816;2024-01-11T07:05:21;17.98;;;10.48;;
48685;SDS011;34485;51.536;3.816;2024-01-11T07:07:47;14.57;;;9.77;;
48685;SDS011;34485;51.536;3.816;2024-01-11T07:10:13;14.93;;;10.25;;
48685;SDS011;34485;51.536;3.816;2024-01-11T07:12:40;14.00;;;9.13;;
48685;SDS011;34485;51.536;3.816;2024-01-11T07:15:08;15.23;;;9.43;;
48685;SDS011;34485;51.536;3.816;2024-01-11T07:17:34;19.45;;;11.05;;
48685;SDS011;34485;51.536;3.816;2024-01-11T07:20:00;29.05;;;11.50;;
48685;SDS011;34485;51.536;3.816;2024-01-11T07:22:29;19.10;;;11.48;;
48685;SDS011;34485;51.536;3.816;2024-01-11T07:24:55;18.70;;;10.90;;
48685;SDS011;34485;51.536;3.816;2024-01-11T07:27:21;19.40;;;11.13;;
48685;SDS011;34485;51.536;3.816;2024-01-11T07:29:47;14.55;;;10.75;;
48685;SDS011;34485;51.536;3.816;2024-01-11T07:32:13;14.40;;;8.48;;
48685;SDS011;34485;51.536;3.816;2024-01-11T07:34:39;16.38;;;9.70;;
48685;SDS011;34485;51.536;3.816;2024-01-11T07:37:05;13.43;;;10.10;;
48685;SDS011;34485;51.536;3.816;2024-01-11T07:39:32;17.95;;;10.80;;
48685;SDS011;34485;51.536;3.816;2024-01-11T07:41:59;20.33;;;12.35;;
48685;SDS011;34485;51.536;3.816;2024-01-11T07:44:25;20.40;;;9.35;;
48685;SDS011;34485;51.536;3.816;2024-01-11T07:46:51;24.23;;;9.95;;
48685;SDS011;34485;51.536;3.816;2024-01-11T07:49:17;14.57;;;8.13;;
48685;SDS011;34485;51.536;3.816;2024-01-11T07:51:43;12.85;;;8.60;;
48685;SDS011;34485;51.536;3.816;2024-01-11T07:54:09;19.08;;;9.45;;
48685;SDS011;34485;51.536;3.816;2024-01-11T07:56:35;12.75;;;9.73;;
48685;SDS011;34485;51.536;3.816;2024-01-11T07:59:01;14.63;;;9.77;;
48685;SDS011;34485;51.536;3.816;2024-01-11T08:01:27;14.30;;;9.53;;
48685;SDS011;34485;51.536;3.816;2024-01-11T08:03:53;18.80;;;10.07;;
48685;SDS011;34485;51.536;3.816;2024-01-11T08:06:20;13.70;;;10.25;;
48685;SDS011;34485;51.536;3.816;2024-01-11T08:08:46;22.58;;;11.07;;
48685;SDS011;34485;51.536;3.816;2024-01-11T08:11:16;15.45;;;10.80;;
48685;SDS011;34485;51.536;3.816;2024-01-11T08:13:43;13.80;;;9.90;;
48685;SDS011;34485;51.536;3.816;2024-01-11T08:16:14;11.93;;;9.88;;
48685;SDS011;34485;51.536;3.816;2024-01-11T08:18:41;15.25;;;9.20;;
48685;SDS011;34485;51.536;3.816;2024-01-11T08:21:09;14.77;;;10.45;;
48685;SDS011;34485;51.536;3.816;2024-01-11T08:23:36;22.95;;;11.88;;
48685;SDS011;34485;51.536;3.816;2024-01-11T08:26:04;8.50;;;7.67;;
48685;SDS011;34485;51.536;3.816;2024-01-11T08:28:30;16.50;;;11.00;;
48685;SDS011;34485;51.536;3.816;2024-01-11T08:30:57;16.60;;;12.10;;
48685;SDS011;34485;51.536;3.816;2024-01-11T08:33:23;15.00;;;10.25;;
48685;SDS011;34485;51.536;3.816;2024-01-11T08:35:49;18.55;;;12.48;;
48685;SDS011;34485;51.536;3.816;2024-01-11T08:38:15;13.77;;;10.53;;
48685;SDS011;34485;51.536;3.816;2024-01-11T08:40:41;17.55;;;10.82;;
48685;SDS011;34485;51.536;3.816;2024-01-11T08:43:07;20.02;;;11.32;;
48685;SDS011;34485;51.536;3.816;2024-01-11T08:45:33;16.90;;;10.85;;
48685;SDS011;34485;51.536;3.816;2024-01-11T08:47:59;20.58;;;13.10;;
48685;SDS011;34485;51.536;3.816;2024-01-11T08:50:25;23.10;;;12.63;;
48685;SDS011;34485;51.536;3.816;2024-01-11T08:52:51;24.92;;;13.10;;
48685;SDS011;34485;51.536;3.816;2024-01-11T08:55:20;24.13;;;14.65;;
48685;SDS011;34485;51.536;3.816;2024-01-11T08:57:46;19.42;;;12.95;;
48685;SDS011;34485;51.536;3.816;2024-01-11T09:00:12;29.15;;;15.80;;
48685;SDS011;34485;51.536;3.816;2024-01-11T09:02:42;22.10;;;12.57;;
48685;SDS011;34485;51.536;3.816;2024-01-11T09:05:08;24.80;;;13.98;;
48685;SDS011;34485;51.536;3.816;2024-01-11T09:07:34;29.08;;;15.80;;
48685;SDS011;34485;51.536;3.816;2024-01-11T09:10:00;24.73;;;14.25;;
48685;SDS011;34485;51.536;3.816;2024-01-11T09:12:26;26.50;;;12.02;;
48685;SDS011;34485;51.536;3.816;2024-01-11T09:14:52;23.03;;;14.00;;
48685;SDS011;34485;51.536;3.816;2024-01-11T09:17:18;27.42;;;14.23;;
48685;SDS011;34485;51.536;3.816;2024-01-11T09:19:44;21.98;;;14.15;;
48685;SDS011;34485;51.536;3.816;2024-01-11T09:22:10;28.25;;;15.80;;
48685;SDS011;34485;51.536;3.816;2024-01-11T09:24:36;23.95;;;13.80;;
48685;SDS011;34485;51.536;3.816;2024-01-11T09:27:02;21.80;;;12.43;;
48685;SDS011;34485;51.536;3.816;2024-01-11T09:29:31;22.75;;;14.73;;
48685;SDS011;34485;51.536;3.816;2024-01-11T09:31:58;23.52;;;12.13;;
48685;SDS011;34485;51.536;3.816;2024-01-11T09:34:24;19.42;;;12.40;;
48685;SDS011;34485;51.536;3.816;2024-01-11T09:36:50;27.20;;;13.57;;
48685;SDS011;34485;51.536;3.816;2024-01-11T09:39:17;26.77;;;13.93;;
48685;SDS011;34485;51.536;3.816;2024-01-11T09:41:46;28.60;;;15.55;;
48685;SDS011;34485;51.536;3.816;2024-01-11T09:44:16;26.55;;;16.10;;
48685;SDS011;34485;51.536;3.816;2024-01-11T09:46:43;26.48;;;14.55;;
48685;SDS011;34485;51.536;3.816;2024-01-11T09:49:09;27.67;;;14.75;;
48685;SDS011;34485;51.536;3.816;2024-01-11T09:51:37;24.70;;;14.57;;
48685;SDS011;34485;51.536;3.816;2024-01-11T09:54:04;23.73;;;13.70;;
48685;SDS011;34485;51.536;3.816;2024-01-11T09:56:31;26.02;;;15.40;;
48685;SDS011;34485;51.536;3.816;2024-01-11T09:58:57;26.33;;;14.40;;
48685;SDS011;34485;51.536;3.816;2024-01-11T10:01:23;28.95;;;15.68;;
48685;SDS011;34485;51.536;3.816;2024-01-11T10:03:50;23.87;;;13.27;;
48685;SDS011;34485;51.536;3.816;2024-01-11T10:06:16;26.45;;;14.75;;
48685;SDS011;34485;51.536;3.816;2024-01-11T10:08:43;24.13;;;14.05;;
48685;SDS011;34485;51.536;3.816;2024-01-11T10:11:09;22.80;;;13.27;;
48685;SDS011;34485;51.536;3.816;2024-01-11T10:13:35;26.63;;;14.47;;
48685;SDS011;34485;51.536;3.816;2024-01-11T10:16:05;22.05;;;12.48;;
48685;SDS011;34485;51.536;3.816;2024-01-11T10:18:32;23.33;;;14.02;;
48685;SDS011;34485;51.536;3.816;2024-01-11T10:20:58;21.13;;;12.67;;
48685;SDS011;34485;51.536;3.816;2024-01-11T10:23:24;21.42;;;12.95;;
48685;SDS011;34485;51.536;3.816;2024-01-11T10:25:49;17.48;;;11.20;;
48685;SDS011;34485;51.536;3.816;2024-01-11T10:28:15;22.63;;;13.05;;
48685;SDS011;34485;51.536;3.816;2024-01-11T10:30:45;14.23;;;9.90;;
48685;SDS011;34485;51.536;3.816;2024-01-11T10:33:11;20.27;;;12.25;;
48685;SDS011;34485;51.536;3.816;2024-01-11T10:35:37;26.27;;;12.97;;
48685;SDS011;34485;51.536;3.816;2024-01-11T10:38:04;18.67;;;10.82;;
48685;SDS011;34485;51.536;3.816;2024-01-11T10:40:34;16.65;;;9.57;;
48685;SDS011;34485;51.536;3.816;2024-01-11T10:43:00;21.43;;;11.27;;
48685;SDS011;34485;51.536;3.816;2024-01-11T10:45:27;19.45;;;11.35;;
48685;SDS011;34485;51.536;3.816;2024-01-11T10:48:01;13.98;;;8.68;;
48685;SDS011;34485;51.536;3.816;2024-01-11T10:50:38;11.77;;;8.05;;
48685;SDS011;34485;51.536;3.816;2024-01-11T10:55:52;13.05;;;7.82;;
48685;SDS011;34485;51.536;3.816;2024-01-11T10:58:21;22.85;;;10.07;;
48685;SDS011;34485;51.536;3.816;2024-01-11T11:00:47;17.48;;;9.20;;
48685;SDS011;34485;51.536;3.816;2024-01-11T11:03:14;12.85;;;8.18;;
48685;SDS011;34485;51.536;3.816;2024-01-11T11:05:40;14.10;;;8.63;;
48685;SDS011;34485;51.536;3.816;2024-01-11T11:08:07;11.40;;;7.25;;
48685;SDS011;34485;51.536;3.816;2024-01-11T11:10:34;13.98;;;9.30;;
48685;SDS011;34485;51.536;3.816;2024-01-11T11:13:00;14.77;;;8.98;;
48685;SDS011;34485;51.536;3.816;2024-01-11T11:15:27;12.23;;;7.65;;
48685;SDS011;34485;51.536;3.816;2024-01-11T11:17:56;16.25;;;9.30;;
48685;SDS011;34485;51.536;3.816;2024-01-11T11:20:22;17.35;;;10.30;;
48685;SDS011;34485;51.536;3.816;2024-01-11T11:23:02;18.73;;;8.52;;
48685;SDS011;34485;51.536;3.816;2024-01-11T11:25:29;15.30;;;9.05;;
48685;SDS011;34485;51.536;3.816;2024-01-11T11:27:55;12.13;;;8.85;;
48685;SDS011;34485;51.536;3.816;2024-01-11T11:30:22;9.88;;;7.40;;
48685;SDS011;34485;51.536;3.816;2024-01-11T11:32:48;13.68;;;7.10;;
48685;SDS011;34485;51.536;3.816;2024-01-11T11:35:14;13.65;;;8.65;;
48685;SDS011;34485;51.536;3.816;2024-01-11T11:37:40;10.88;;;6.97;;
48685;SDS011;34485;51.536;3.816;2024-01-11T11:40:08;11.18;;;8.10;;
48685;SDS011;34485;51.536;3.816;2024-01-11T11:42:39;12.52;;;8.80;;
48685;SDS011;34485;51.536;3.816;2024-01-11T11:45:05;16.38;;;8.98;;
48685;SDS011;34485;51.536;3.816;2024-01-11T11:47:35;14.88;;;9.65;;
48685;SDS011;34485;51.536;3.816;2024-01-11T11:52:34;16.70;;;10.32;;
48685;SDS011;34485;51.536;3.816;2024-01-11T11:55:01;19.45;;;10.63;;
48685;SDS011;34485;51.536;3.816;2024-01-11T11:57:27;13.48;;;10.18;;
48685;SDS011;34485;51.536;3.816;2024-01-11T11:59:57;25.08;;;11.63;;
48685;SDS011;34485;51.536;3.816;2024-01-11T12:02:30;16.05;;;10.60;;
48685;SDS011;34485;51.536;3.816;2024-01-11T12:04:56;17.27;;;10.63;;
48685;SDS011;34485;51.536;3.816;2024-01-11T12:07:22;19.85;;;10.75;;
48685;SDS011;34485;51.536;3.816;2024-01-11T12:09:49;19.92;;;12.43;;
48685;SDS011;34485;51.536;3.816;2024-01-11T12:12:17;15.80;;;11.35;;
48685;SDS011;34485;51.536;3.816;2024-01-11T12:14:45;16.98;;;11.20;;
48685;SDS011;34485;51.536;3.816;2024-01-11T12:17:12;20.52;;;12.90;;
48685;SDS011;34485;51.536;3.816;2024-01-11T12:19:38;16.30;;;11.07;;
48685;SDS011;34485;51.536;3.816;2024-01-11T12:22:04;19.90;;;11.10;;
48685;SDS011;34485;51.536;3.816;2024-01-11T12:24:30;15.20;;;10.00;;
48685;SDS011;34485;51.536;3.816;2024-01-11T12:26:56;17.38;;;10.00;;
48685;SDS011;34485;51.536;3.816;2024-01-11T12:29:23;16.85;;;10.00;;
48685;SDS011;34485;51.536;3.816;2024-01-11T12:31:52;11.32;;;6.82;;
48685;SDS011;34485;51.536;3.816;2024-01-11T12:34:18;14.82;;;9.15;;
48685;SDS011;34485;51.536;3.816;2024-01-11T12:36:44;16.08;;;9.40;;
48685;SDS011;34485;51.536;3.816;2024-01-11T12:39:10;19.17;;;10.95;;
48685;SDS011;34485;51.536;3.816;2024-01-11T12:41:38;24.10;;;13.23;;
48685;SDS011;34485;51.536;3.816;2024-01-11T12:44:04;15.10;;;8.35;;
48685;SDS011;34485;51.536;3.816;2024-01-11T12:46:31;12.70;;;8.80;;
48685;SDS011;34485;51.536;3.816;2024-01-11T12:48:57;16.98;;;11.15;;
48685;SDS011;34485;51.536;3.816;2024-01-11T12:51:25;21.48;;;9.70;;
48685;SDS011;34485;51.536;3.816;2024-01-11T12:53:52;14.77;;;9.43;;
48685;SDS011;34485;51.536;3.816;2024-01-11T12:56:18;20.67;;;12.25;;
48685;SDS011;34485;51.536;3.816;2024-01-11T12:58:46;13.30;;;10.73;;
48685;SDS011;34485;51.536;3.816;2024-01-11T13:01:12;17.27;;;10.60;;
48685;SDS011;34485;51.536;3.816;2024-01-11T13:03:39;13.25;;;8.63;;
48685;SDS011;34485;51.536;3.816;2024-01-11T13:06:09;18.50;;;11.98;;
48685;SDS011;34485;51.536;3.816;2024-01-11T13:08:36;18.48;;;12.13;;
48685;SDS011;34485;51.536;3.816;2024-01-11T13:11:04;19.65;;;11.77;;
48685;SDS011;34485;51.536;3.816;2024-01-11T13:13:34;20.50;;;11.85;;
48685;SDS011;34485;51.536;3.816;2024-01-11T13:16:03;16.40;;;11.93;;
48685;SDS011;34485;51.536;3.816;2024-01-11T13:18:36;17.73;;;12.30;;
48685;SDS011;34485;51.536;3.816;2024-01-11T13:21:02;20.58;;;13.30;;
48685;SDS011;34485;51.536;3.816;2024-01-11T13:23:28;21.58;;;13.30;;
48685;SDS011;34485;51.536;3.816;2024-01-11T13:25:54;27.58;;;15.35;;
48685;SDS011;34485;51.536;3.816;2024-01-11T13:28:20;23.30;;;14.85;;
48685;SDS011;34485;51.536;3.816;2024-01-11T13:30:46;28.58;;;14.88;;
48685;SDS011;34485;51.536;3.816;2024-01-11T13:33:14;22.20;;;14.13;;
48685;SDS011;34485;51.536;3.816;2024-01-11T13:35:42;19.98;;;12.43;;
48685;SDS011;34485;51.536;3.816;2024-01-11T13:38:08;25.95;;;14.15;;
48685;SDS011;34485;51.536;3.816;2024-01-11T13:40:34;22.17;;;14.98;;
48685;SDS011;34485;51.536;3.816;2024-01-11T13:43:00;27.45;;;15.98;;
48685;SDS011;34485;51.536;3.816;2024-01-11T13:45:28;29.08;;;17.20;;
48685;SDS011;34485;51.536;3.816;2024-01-11T13:47:57;26.27;;;16.27;;
48685;SDS011;34485;51.536;3.816;2024-01-11T13:50:23;31.88;;;16.95;;
48685;SDS011;34485;51.536;3.816;2024-01-11T13:52:49;33.80;;;18.52;;
48685;SDS011;34485;51.536;3.816;2024-01-11T13:55:15;34.92;;;18.75;;
48685;SDS011;34485;51.536;3.816;2024-01-11T13:57:46;28.85;;;17.35;;
48685;SDS011;34485;51.536;3.816;2024-01-11T14:00:12;25.75;;;15.27;;
48685;SDS011;34485;51.536;3.816;2024-01-11T14:02:39;32.05;;;17.17;;
48685;SDS011;34485;51.536;3.816;2024-01-11T14:05:06;26.30;;;14.57;;
48685;SDS011;34485;51.536;3.816;2024-01-11T14:07:37;25.42;;;14.82;;
48685;SDS011;34485;51.536;3.816;2024-01-11T14:10:03;23.67;;;14.27;;
48685;SDS011;34485;51.536;3.816;2024-01-11T14:12:30;27.67;;;14.02;;
48685;SDS011;34485;51.536;3.816;2024-01-11T14:14:57;29.15;;;15.02;;
48685;SDS011;34485;51.536;3.816;2024-01-11T14:17:22;22.80;;;13.10;;
48685;SDS011;34485;51.536;3.816;2024-01-11T14:19:48;23.23;;;14.73;;
48685;SDS011;34485;51.536;3.816;2024-01-11T14:22:14;23.85;;;12.80;;
48685;SDS011;34485;51.536;3.816;2024-01-11T14:24:40;24.92;;;14.30;;
48685;SDS011;34485;51.536;3.816;2024-01-11T14:27:05;26.90;;;14.50;;
48685;SDS011;34485;51.536;3.816;2024-01-11T14:29:32;23.38;;;14.38;;
48685;SDS011;34485;51.536;3.816;2024-01-11T14:31:58;27.27;;;14.48;;
48685;SDS011;34485;51.536;3.816;2024-01-11T14:34:24;21.65;;;14.00;;
48685;SDS011;34485;51.536;3.816;2024-01-11T14:36:49;21.83;;;13.52;;
48685;SDS011;34485;51.536;3.816;2024-01-11T14:39:15;24.58;;;14.07;;
48685;SDS011;34485;51.536;3.816;2024-01-11T14:41:41;26.80;;;14.90;;